Time;durP1;ratioP1;P1;durP2;ratioP2;P2;SDS_P1;SDS_P2;PMS_P1;PMS_P2;Temp;Humidity;BMP_temperature;BMP_pressure;BME280_temperature;BME280_humidity;BME280_pressure;Samples;Min_cycle;Max_cycle;Signal;HPM_P1;HPM_P2
2024/04/25 00:01:11;;;;;;;24.30;14.70;;;;;;;;;;5527481;25;19996;-52
2024/04/25 00:03:37;;;;;;;20.42;13.95;;;;;;;;;;5525739;26;20017;-54
2024/04/25 00:06:03;;;;;;;23.63;14.95;;;;;;;;;;5531223;25;20009;-53
2024/04/25 00:08:29;;;;;;;25.48;14.95;;;;;;;;;;5541303;25;20008;-52
2024/04/25 00:10:55;;;;;;;21.45;13.70;;;;;;;;;;5527794;25;20336;-57
2024/04/25 00:13:26;;;;;;;23.92;14.65;;;;;;;;;;5560903;25;19997;-53
2024/04/25 00:15:52;;;;;;;24.98;14.93;;;;;;;;;;5534258;25;20065;-55
2024/04/25 00:18:18;;;;;;;25.95;14.50;;;;;;;;;;5541803;25;20025;-53
2024/04/25 00:20:44;;;;;;;22.55;14.40;;;;;;;;;;5559123;25;20089;-53
2024/04/25 00:23:10;;;;;;;26.65;15.20;;;;;;;;;;5562263;25;20007;-52
2024/04/25 00:25:36;;;;;;;26.02;16.50;;;;;;;;;;5561342;25;19992;-53
2024/04/25 00:28:02;;;;;;;22.80;14.77;;;;;;;;;;5555801;25;19993;-55
2024/04/25 00:30:28;;;;;;;27.20;16.38;;;;;;;;;;5527604;25;20015;-57
2024/04/25 00:32:54;;;;;;;26.80;15.75;;;;;;;;;;5526804;25;20015;-56
2024/04/25 00:35:20;;;;;;;26.30;15.95;;;;;;;;;;5527288;25;19997;-57
2024/04/25 00:37:46;;;;;;;26.42;16.25;;;;;;;;;;5539807;25;19997;-57
2024/04/25 00:40:12;;;;;;;28.10;15.55;;;;;;;;;;5554977;25;20001;-61
2024/04/25 00:42:38;;;;;;;26.92;16.70;;;;;;;;;;5539956;25;20572;-61
2024/04/25 00:45:04;;;;;;;29.33;17.80;;;;;;;;;;5557081;25;20072;-61
2024/04/25 00:47:30;;;;;;;26.42;16.33;;;;;;;;;;5547766;25;20000;-61
2024/04/25 00:49:57;;;;;;;24.13;15.40;;;;;;;;;;5535607;25;20008;-61
2024/04/25 00:52:23;;;;;;;24.70;15.40;;;;;;;;;;5526742;25;20079;-61
2024/04/25 00:54:50;;;;;;;25.63;16.27;;;;;;;;;;5526985;25;20001;-59
2024/04/25 00:57:16;;;;;;;24.13;14.98;;;;;;;;;;5538941;25;20008;-61
2024/04/25 00:59:44;;;;;;;27.83;15.95;;;;;;;;;;5561393;25;20076;-61
2024/04/25 01:02:10;;;;;;;21.90;14.10;;;;;;;;;;5559017;25;20329;-60
2024/04/25 01:04:36;;;;;;;23.85;14.50;;;;;;;;;;5563704;25;20448;-60
2024/04/25 01:07:03;;;;;;;25.50;15.80;;;;;;;;;;5530725;25;20012;-60
2024/04/25 01:09:30;;;;;;;25.85;15.95;;;;;;;;;;5529185;25;20007;-60
2024/04/25 01:11:56;;;;;;;22.83;14.98;;;;;;;;;;5535228;25;20005;-61
2024/04/25 01:14:23;;;;;;;26.00;15.93;;;;;;;;;;5538268;25;19997;-60
2024/04/25 01:16:49;;;;;;;22.85;14.10;;;;;;;;;;5530145;25;20004;-60
2024/04/25 01:19:17;;;;;;;26.25;16.02;;;;;;;;;;5561967;25;19997;-61
2024/04/25 01:21:43;;;;;;;23.13;14.80;;;;;;;;;;5544439;25;20028;-61
2024/04/25 01:24:09;;;;;;;23.95;14.75;;;;;;;;;;5557847;25;20000;-60
2024/04/25 01:26:36;;;;;;;26.58;15.45;;;;;;;;;;5530044;25;20025;-61
2024/04/25 01:29:04;;;;;;;25.30;15.82;;;;;;;;;;5532008;25;19993;-61
2024/04/25 01:31:31;;;;;;;22.00;14.32;;;;;;;;;;5536275;25;19997;-61
2024/04/25 01:33:57;;;;;;;27.23;16.13;;;;;;;;;;5537568;25;19997;-58
2024/04/25 01:36:23;;;;;;;26.83;15.30;;;;;;;;;;5534520;25;20341;-60
2024/04/25 01:38:49;;;;;;;26.00;15.18;;;;;;;;;;5526380;26;20012;-60
2024/04/25 01:41:15;;;;;;;22.73;14.20;;;;;;;;;;5555151;25;20026;-61
2024/04/25 01:43:41;;;;;;;22.98;14.98;;;;;;;;;;5561737;25;19997;-60
2024/04/25 01:46:07;;;;;;;27.38;14.57;;;;;;;;;;5563169;25;20011;-60
2024/04/25 01:48:34;;;;;;;23.60;14.10;;;;;;;;;;5538526;25;20322;-60
2024/04/25 01:51:01;;;;;;;26.10;14.70;;;;;;;;;;5526248;25;19994;-60
2024/04/25 01:53:27;;;;;;;23.25;14.35;;;;;;;;;;5543351;25;20033;-60
2024/04/25 01:55:53;;;;;;;25.27;15.20;;;;;;;;;;5563261;25;19997;-60
2024/04/25 01:58:19;;;;;;;24.33;14.68;;;;;;;;;;5562892;25;20455;-57
2024/04/25 02:00:45;;;;;;;22.88;14.20;;;;;;;;;;5526338;25;20037;-60
2024/04/25 02:03:11;;;;;;;26.00;14.75;;;;;;;;;;5538307;25;20008;-61
2024/04/25 02:05:37;;;;;;;22.50;14.23;;;;;;;;;;5555149;25;19993;-61
2024/04/25 02:08:03;;;;;;;20.55;12.85;;;;;;;;;;5556550;25;20012;-61
2024/04/25 02:10:29;;;;;;;25.27;14.52;;;;;;;;;;5526450;25;20402;-61
2024/04/25 02:12:55;;;;;;;21.13;12.88;;;;;;;;;;5543218;25;19993;-61
2024/04/25 02:15:21;;;;;;;20.98;12.55;;;;;;;;;;5526897;25;19993;-61
2024/04/25 02:17:47;;;;;;;23.58;14.15;;;;;;;;;;5544433;25;20000;-61
2024/04/25 02:25:44;;;;;;;22.83;13.80;;;;;;;;;;5540674;25;20017;-61
2024/04/25 02:28:11;;;;;;;25.27;13.98;;;;;;;;;;5525568;25;19997;-61
2024/04/25 02:30:37;;;;;;;20.58;13.18;;;;;;;;;;5526521;25;19998;-59
2024/04/25 02:33:03;;;;;;;21.40;13.60;;;;;;;;;;5550732;25;20011;-61
2024/04/25 02:35:29;;;;;;;21.60;12.77;;;;;;;;;;5562405;25;20007;-61
2024/04/25 02:37:55;;;;;;;22.35;13.15;;;;;;;;;;5559973;25;20005;-61
2024/04/25 02:40:21;;;;;;;23.70;13.35;;;;;;;;;;5560888;25;20075;-59
2024/04/25 02:42:46;;;;;;;20.23;12.18;;;;;;;;;;5561891;25;20463;-60
2024/04/25 02:45:12;;;;;;;21.20;12.95;;;;;;;;;;5559893;25;20453;-60
2024/04/25 02:47:38;;;;;;;18.80;11.60;;;;;;;;;;5560495;25;19997;-61
2024/04/25 02:50:05;;;;;;;20.02;12.10;;;;;;;;;;5559328;25;20365;-54
2024/04/25 02:52:31;;;;;;;18.52;11.43;;;;;;;;;;5548431;25;20009;-52
2024/04/25 02:54:58;;;;;;;20.70;12.27;;;;;;;;;;5525111;25;19998;-54
2024/04/25 02:57:24;;;;;;;20.67;12.70;;;;;;;;;;5536268;25;19993;-53
2024/04/25 02:59:50;;;;;;;20.10;12.00;;;;;;;;;;5524710;25;20444;-60
2024/04/25 03:02:16;;;;;;;24.80;12.95;;;;;;;;;;5552965;25;20381;-60
2024/04/25 03:04:42;;;;;;;19.70;11.52;;;;;;;;;;5560770;25;20067;-61
2024/04/25 03:07:08;;;;;;;18.70;11.40;;;;;;;;;;5561289;25;20011;-61
2024/04/25 03:09:34;;;;;;;20.58;11.65;;;;;;;;;;5559621;25;20069;-60
2024/04/25 03:12:00;;;;;;;20.98;11.45;;;;;;;;;;5529095;25;19997;-60
2024/04/25 03:14:26;;;;;;;17.95;10.75;;;;;;;;;;5541916;25;19994;-61
2024/04/25 03:16:52;;;;;;;19.45;11.85;;;;;;;;;;5524716;25;20034;-58
2024/04/25 03:19:18;;;;;;;19.23;11.82;;;;;;;;;;5551986;25;20008;-59
2024/04/25 03:21:44;;;;;;;20.83;12.20;;;;;;;;;;5527936;25;20005;-60
2024/04/25 03:24:11;;;;;;;19.42;12.25;;;;;;;;;;5537662;25;20000;-59
2024/04/25 03:26:37;;;;;;;18.92;11.85;;;;;;;;;;5552909;25;19997;-61
2024/04/25 03:29:03;;;;;;;18.92;11.35;;;;;;;;;;5524650;25;20008;-60
2024/04/25 03:31:28;;;;;;;17.85;10.60;;;;;;;;;;5527990;25;20037;-61
2024/04/25 03:33:54;;;;;;;18.75;11.25;;;;;;;;;;5558561;25;19993;-61
2024/04/25 03:36:21;;;;;;;20.50;11.77;;;;;;;;;;5559912;25;20436;-59
2024/04/25 03:38:47;;;;;;;18.00;10.90;;;;;;;;;;5560646;25;19993;-60
2024/04/25 03:41:19;;;;;;;16.60;9.75;;;;;;;;;;5562859;25;20000;-60
2024/04/25 03:43:45;;;;;;;17.83;10.07;;;;;;;;;;5564251;25;20071;-61
2024/04/25 03:46:12;;;;;;;16.77;9.95;;;;;;;;;;5565329;25;20001;-60
2024/04/25 03:48:37;;;;;;;18.45;10.57;;;;;;;;;;5546248;25;19993;-59
2024/04/25 03:51:04;;;;;;;20.95;10.10;;;;;;;;;;5560942;25;20332;-60
2024/04/25 03:53:30;;;;;;;18.92;9.80;;;;;;;;;;5526272;25;20090;-61
2024/04/25 03:55:55;;;;;;;16.52;9.40;;;;;;;;;;5533179;25;20025;-59
2024/04/25 03:58:21;;;;;;;16.88;10.25;;;;;;;;;;5526631;25;20451;-53
2024/04/25 04:00:47;;;;;;;20.30;9.68;;;;;;;;;;5537420;25;20332;-52
2024/04/25 04:03:14;;;;;;;14.25;8.52;;;;;;;;;;5544813;25;19993;-53
2024/04/25 04:05:40;;;;;;;15.18;8.40;;;;;;;;;;5559430;25;20333;-55
2024/04/25 04:08:06;;;;;;;11.57;7.22;;;;;;;;;;5549757;25;20001;-54
2024/04/25 04:10:32;;;;;;;12.77;8.43;;;;;;;;;;5533679;25;19993;-57
2024/04/25 04:12:58;;;;;;;14.60;8.55;;;;;;;;;;5554265;25;20019;-57
2024/04/25 04:15:24;;;;;;;12.10;7.68;;;;;;;;;;5559841;25;20008;-56
2024/04/25 04:17:50;;;;;;;12.63;7.65;;;;;;;;;;5537300;25;20421;-56
2024/04/25 04:20:16;;;;;;;11.32;6.93;;;;;;;;;;5549258;25;20071;-56
2024/04/25 04:22:42;;;;;;;11.02;7.18;;;;;;;;;;5529158;25;19997;-56
2024/04/25 04:25:09;;;;;;;11.63;7.68;;;;;;;;;;5553856;25;20025;-56
2024/04/25 04:27:35;;;;;;;13.25;6.88;;;;;;;;;;5543690;25;20017;-56
2024/04/25 04:30:01;;;;;;;13.63;6.85;;;;;;;;;;5547108;25;20472;-56
2024/04/25 04:32:27;;;;;;;10.32;6.95;;;;;;;;;;5547608;25;20003;-56
2024/04/25 04:34:53;;;;;;;11.57;6.65;;;;;;;;;;5531367;25;20089;-57
2024/04/25 04:37:19;;;;;;;10.57;6.85;;;;;;;;;;5542139;25;20051;-56
2024/04/25 04:39:45;;;;;;;9.73;6.35;;;;;;;;;;5551447;25;20065;-56
2024/04/25 04:42:11;;;;;;;10.88;7.60;;;;;;;;;;5539481;25;20473;-56
2024/04/25 04:44:37;;;;;;;12.73;6.55;;;;;;;;;;5550421;25;20001;-57
2024/04/25 04:47:03;;;;;;;10.23;6.38;;;;;;;;;;5541007;25;20006;-57
2024/04/25 04:49:29;;;;;;;13.35;6.00;;;;;;;;;;5540325;25;20008;-57
2024/04/25 04:51:55;;;;;;;9.73;5.85;;;;;;;;;;5532357;25;20012;-57
2024/04/25 04:54:21;;;;;;;11.25;6.28;;;;;;;;;;5548235;25;20009;-56
2024/04/25 04:56:47;;;;;;;13.30;6.78;;;;;;;;;;5542455;25;20000;-57
2024/04/25 04:59:13;;;;;;;9.77;5.88;;;;;;;;;;5544007;25;20077;-56
2024/04/25 05:01:39;;;;;;;9.57;5.72;;;;;;;;;;5540247;25;20013;-56
2024/04/25 05:04:05;;;;;;;12.18;6.78;;;;;;;;;;5541867;25;20356;-57
2024/04/25 05:06:31;;;;;;;9.75;6.57;;;;;;;;;;5539124;25;19993;-57
2024/04/25 05:08:57;;;;;;;9.07;6.35;;;;;;;;;;5542379;25;20076;-60
2024/04/25 05:11:23;;;;;;;10.93;6.20;;;;;;;;;;5538249;25;20012;-60
2024/04/25 05:13:49;;;;;;;10.90;6.50;;;;;;;;;;5556862;25;20067;-60
2024/04/25 05:16:14;;;;;;;12.13;5.63;;;;;;;;;;5537353;25;20004;-60
2024/04/25 05:18:40;;;;;;;12.38;5.75;;;;;;;;;;5536238;25;20719;-54
2024/04/25 05:21:07;;;;;;;10.48;5.90;;;;;;;;;;5534289;25;20001;-54
2024/04/25 05:23:32;;;;;;;10.07;5.90;;;;;;;;;;5546854;25;20075;-52
2024/04/25 05:25:58;;;;;;;9.32;5.82;;;;;;;;;;5545274;25;20009;-51
2024/04/25 05:28:24;;;;;;;7.32;5.03;;;;;;;;;;5542622;25;20028;-53
2024/04/25 05:30:50;;;;;;;11.57;6.63;;;;;;;;;;5558667;25;20019;-53
2024/04/25 05:33:16;;;;;;;9.23;5.85;;;;;;;;;;5554017;25;20354;-54
2024/04/25 05:35:44;;;;;;;9.68;5.78;;;;;;;;;;5559774;25;19993;-54
2024/04/25 05:38:10;;;;;;;9.30;6.00;;;;;;;;;;5562398;25;19997;-55
2024/04/25 05:40:36;;;;;;;9.55;6.22;;;;;;;;;;5558640;25;20011;-53
2024/04/25 05:43:02;;;;;;;7.82;5.38;;;;;;;;;;5540410;25;20012;-52
2024/04/25 05:45:28;;;;;;;10.85;5.88;;;;;;;;;;5554310;25;20000;-53
2024/04/25 05:47:54;;;;;;;8.40;5.85;;;;;;;;;;5553257;25;20000;-52
2024/04/25 05:50:20;;;;;;;10.27;5.65;;;;;;;;;;5560272;25;19992;-52
2024/04/25 05:52:46;;;;;;;8.73;5.43;;;;;;;;;;5547459;25;20004;-52
2024/04/25 05:55:13;;;;;;;9.75;6.30;;;;;;;;;;5562167;25;20462;-54
2024/04/25 05:57:39;;;;;;;9.95;5.40;;;;;;;;;;5544402;25;20024;-53
2024/04/25 06:00:05;;;;;;;8.65;5.10;;;;;;;;;;5555848;25;20454;-52
2024/04/25 06:02:31;;;;;;;9.85;5.68;;;;;;;;;;5560560;25;20444;-54
2024/04/25 06:04:57;;;;;;;10.98;6.35;;;;;;;;;;5539868;25;19996;-53
2024/04/25 06:07:23;;;;;;;11.00;5.65;;;;;;;;;;5546199;25;20029;-52
2024/04/25 06:09:50;;;;;;;12.25;5.63;;;;;;;;;;5557151;25;20005;-54
2024/04/25 06:12:16;;;;;;;11.98;6.32;;;;;;;;;;5553229;25;20004;-52
2024/04/25 06:14:42;;;;;;;9.43;5.30;;;;;;;;;;5545551;25;20001;-55
2024/04/25 06:17:08;;;;;;;8.15;5.40;;;;;;;;;;5555248;25;20004;-53
2024/04/25 06:19:34;;;;;;;8.40;5.15;;;;;;;;;;5560018;25;20375;-57
2024/04/25 06:22:02;;;;;;;8.52;5.90;;;;;;;;;;5551886;25;20001;-56
2024/04/25 06:24:28;;;;;;;9.20;4.85;;;;;;;;;;5561083;25;20078;-57
2024/04/25 06:26:54;;;;;;;10.77;5.65;;;;;;;;;;5561147;25;19996;-57
2024/04/25 06:29:20;;;;;;;9.95;5.47;;;;;;;;;;5555160;25;19997;-57
2024/04/25 06:31:46;;;;;;;7.10;4.90;;;;;;;;;;5561120;25;20008;-57
2024/04/25 06:34:12;;;;;;;10.73;5.20;;;;;;;;;;5560921;25;20011;-57
2024/04/25 06:36:38;;;;;;;8.13;5.15;;;;;;;;;;5557793;25;19993;-57
2024/04/25 06:39:06;;;;;;;8.48;5.05;;;;;;;;;;5561118;25;20000;-57
2024/04/25 06:41:32;;;;;;;8.23;4.95;;;;;;;;;;5561297;25;19992;-57
2024/04/25 06:43:58;;;;;;;6.78;4.38;;;;;;;;;;5554936;25;20024;-57
2024/04/25 06:46:24;;;;;;;8.05;4.85;;;;;;;;;;5561054;25;20000;-57
2024/04/25 06:48:50;;;;;;;6.75;4.72;;;;;;;;;;5558202;25;20031;-57
2024/04/25 06:51:18;;;;;;;10.02;5.85;;;;;;;;;;5537439;25;20001;-57
2024/04/25 06:53:44;;;;;;;7.80;4.93;;;;;;;;;;5560590;25;20028;-57
2024/04/25 06:56:10;;;;;;;9.88;5.10;;;;;;;;;;5561004;25;20081;-57
2024/04/25 06:58:36;;;;;;;9.13;5.15;;;;;;;;;;5560713;25;20045;-57
2024/04/25 07:01:02;;;;;;;8.98;5.25;;;;;;;;;;5560877;25;20008;-56
2024/04/25 07:03:28;;;;;;;9.85;4.95;;;;;;;;;;5560250;25;20008;-57
2024/04/25 07:05:54;;;;;;;9.90;5.70;;;;;;;;;;5550636;25;20439;-57
2024/04/25 07:08:21;;;;;;;7.75;5.18;;;;;;;;;;5535763;25;20037;-56
2024/04/25 07:10:47;;;;;;;10.68;5.05;;;;;;;;;;5561008;25;20067;-57
2024/04/25 07:13:13;;;;;;;8.55;5.03;;;;;;;;;;5543150;25;20073;-58
2024/04/25 07:15:39;;;;;;;7.85;4.93;;;;;;;;;;5564076;25;19996;-57
2024/04/25 07:18:06;;;;;;;14.88;5.05;;;;;;;;;;5564527;25;20041;-57
2024/04/25 07:20:33;;;;;;;7.10;4.38;;;;;;;;;;5548071;25;19997;-57
2024/04/25 07:22:59;;;;;;;10.05;5.40;;;;;;;;;;5560208;25;20012;-57
2024/04/25 07:25:26;;;;;;;9.55;5.03;;;;;;;;;;5564280;25;19993;-56
2024/04/25 07:27:52;;;;;;;8.15;5.10;;;;;;;;;;5563927;25;19988;-57
2024/04/25 07:30:18;;;;;;;6.85;4.60;;;;;;;;;;5552596;25;20066;-59
2024/04/25 07:32:44;;;;;;;6.72;4.65;;;;;;;;;;5556798;25;20456;-60
2024/04/25 07:35:11;;;;;;;8.02;5.07;;;;;;;;;;5551814;25;20000;-60
2024/04/25 07:37:37;;;;;;;9.07;5.50;;;;;;;;;;5563737;25;20444;-60
2024/04/25 07:40:04;;;;;;;8.32;4.80;;;;;;;;;;5564348;25;19997;-52
2024/04/25 07:42:30;;;;;;;10.10;4.70;;;;;;;;;;5563154;25;20048;-53
2024/04/25 07:44:57;;;;;;;7.82;5.15;;;;;;;;;;5564181;25;20004;-53
2024/04/25 07:47:23;;;;;;;9.25;4.93;;;;;;;;;;5563825;25;20404;-52
2024/04/25 07:49:49;;;;;;;8.13;4.90;;;;;;;;;;5561600;25;19997;-53
2024/04/25 07:52:15;;;;;;;8.52;4.93;;;;;;;;;;5563414;25;20415;-54
2024/04/25 07:54:41;;;;;;;6.82;4.78;;;;;;;;;;5563958;25;20374;-53
2024/04/25 07:57:07;;;;;;;7.57;4.90;;;;;;;;;;5563379;25;20427;-54
2024/04/25 07:59:33;;;;;;;7.60;4.70;;;;;;;;;;5539022;25;20008;-51
2024/04/25 08:01:59;;;;;;;7.45;4.78;;;;;;;;;;5555053;25;20008;-55
2024/04/25 08:04:25;;;;;;;5.68;4.18;;;;;;;;;;5563228;25;19993;-55
2024/04/25 08:06:51;;;;;;;10.52;4.72;;;;;;;;;;5554845;25;19997;-54
2024/04/25 08:09:17;;;;;;;6.10;4.32;;;;;;;;;;5563575;25;20329;-54
2024/04/25 08:11:43;;;;;;;7.63;4.78;;;;;;;;;;5550933;25;20041;-54
2024/04/25 08:14:09;;;;;;;6.50;4.22;;;;;;;;;;5555494;25;19993;-53
2024/04/25 08:16:35;;;;;;;8.50;4.45;;;;;;;;;;5563627;25;20068;-53
2024/04/25 08:19:01;;;;;;;7.75;4.63;;;;;;;;;;5563777;25;20332;-54
2024/04/25 08:21:27;;;;;;;6.45;4.07;;;;;;;;;;5561058;25;20071;-54
2024/04/25 08:23:53;;;;;;;5.32;3.67;;;;;;;;;;5562612;25;19997;-54
2024/04/25 08:26:19;;;;;;;4.72;3.10;;;;;;;;;;5562763;25;19996;-54
2024/04/25 08:28:45;;;;;;;4.95;3.55;;;;;;;;;;5561672;25;20037;-55
2024/04/25 08:31:10;;;;;;;5.00;3.40;;;;;;;;;;5561482;25;20011;-55
2024/04/25 08:33:37;;;;;;;6.25;3.90;;;;;;;;;;5562793;25;20348;-54
2024/04/25 08:36:04;;;;;;;5.30;3.15;;;;;;;;;;5537857;25;19993;-53
2024/04/25 08:38:33;;;;;;;5.32;2.95;;;;;;;;;;5562943;25;20012;-57
2024/04/25 08:40:58;;;;;;;4.35;2.70;;;;;;;;;;5555984;25;20065;-57
2024/04/25 08:43:25;;;;;;;5.57;2.42;;;;;;;;;;5550440;25;20009;-57
2024/04/25 08:45:51;;;;;;;4.18;2.65;;;;;;;;;;5562985;25;20025;-57
2024/04/25 08:48:18;;;;;;;5.13;2.75;;;;;;;;;;5562814;25;20333;-60
2024/04/25 08:50:47;;;;;;;3.53;2.22;;;;;;;;;;5555611;25;20016;-61
2024/04/25 08:53:15;;;;;;;3.95;2.20;;;;;;;;;;5542392;25;20065;-61
2024/04/25 08:55:42;;;;;;;3.72;2.20;;;;;;;;;;5562682;25;19997;-61
2024/04/25 08:58:08;;;;;;;5.00;2.10;;;;;;;;;;5558980;25;20071;-61
2024/04/25 09:00:34;;;;;;;4.72;1.60;;;;;;;;;;5531975;25;20008;-61
2024/04/25 09:03:04;;;;;;;2.83;1.70;;;;;;;;;;5542861;25;20382;-61
2024/04/25 09:05:32;;;;;;;2.63;1.70;;;;;;;;;;5555111;25;20011;-61
2024/04/25 09:07:58;;;;;;;3.67;1.95;;;;;;;;;;5538981;25;20007;-61
2024/04/25 09:10:24;;;;;;;2.20;1.70;;;;;;;;;;5561492;25;20008;-61
2024/04/25 09:12:51;;;;;;;1.65;1.10;;;;;;;;;;5545482;25;19994;-61
2024/04/25 09:15:17;;;;;;;2.45;1.58;;;;;;;;;;5561060;25;20012;-60
2024/04/25 09:17:43;;;;;;;2.33;1.38;;;;;;;;;;5562595;25;20333;-61
2024/04/25 09:20:10;;;;;;;1.58;1.08;;;;;;;;;;5553983;25;20001;-60
2024/04/25 09:22:39;;;;;;;3.17;1.55;;;;;;;;;;5542679;25;20067;-61
2024/04/25 09:25:07;;;;;;;2.33;1.60;;;;;;;;;;5562337;25;20530;-60
2024/04/25 09:27:32;;;;;;;3.42;1.90;;;;;;;;;;5562429;25;20029;-61
2024/04/25 09:29:58;;;;;;;2.55;1.73;;;;;;;;;;5562340;25;20049;-61
2024/04/25 09:32:24;;;;;;;3.53;1.80;;;;;;;;;;5561923;25;20409;-61
2024/04/25 09:34:50;;;;;;;2.92;2.28;;;;;;;;;;5562079;25;20009;-61
2024/04/25 09:37:17;;;;;;;3.45;2.00;;;;;;;;;;5532477;25;19992;-61
2024/04/25 09:39:43;;;;;;;3.10;2.15;;;;;;;;;;5562149;25;19992;-61
2024/04/25 09:42:11;;;;;;;4.20;1.95;;;;;;;;;;5555947;25;19993;-61
2024/04/25 09:44:38;;;;;;;2.22;1.52;;;;;;;;;;5559828;25;20004;-61
2024/04/25 09:47:06;;;;;;;2.42;1.80;;;;;;;;;;5560287;25;19997;-61
2024/04/25 09:49:35;;;;;;;2.53;1.65;;;;;;;;;;5561653;25;20016;-61
2024/04/25 09:52:08;;;;;;;1.83;1.20;;;;;;;;;;5560209;25;20012;-61
2024/04/25 09:54:38;;;;;;;2.63;1.38;;;;;;;;;;5562122;25;20016;-61
2024/04/25 09:57:04;;;;;;;2.60;1.45;;;;;;;;;;5549515;25;20002;-61
2024/04/25 09:59:49;;;;;;;3.15;1.80;;;;;;;;;;5562033;25;20012;-58
2024/04/25 10:02:15;;;;;;;4.25;1.52;;;;;;;;;;5555611;25;20020;-58
2024/04/25 10:04:42;;;;;;;3.50;1.48;;;;;;;;;;5562030;25;20000;-58
2024/04/25 10:07:09;;;;;;;3.25;2.33;;;;;;;;;;5533189;25;20386;-58
2024/04/25 10:09:35;;;;;;;3.10;2.00;;;;;;;;;;5546638;25;20080;-58
2024/04/25 10:12:04;;;;;;;2.78;2.08;;;;;;;;;;5537610;25;20000;-59
2024/04/25 10:14:30;;;;;;;3.40;2.25;;;;;;;;;;5554934;25;19997;-59
2024/04/25 10:16:56;;;;;;;3.42;2.08;;;;;;;;;;5536961;25;19997;-58
2024/04/25 10:19:35;;;;;;;2.58;1.98;;;;;;;;;;5561822;25;19996;-58
2024/04/25 10:22:01;;;;;;;2.78;2.00;;;;;;;;;;5544928;25;19993;-59
2024/04/25 10:24:27;;;;;;;2.53;1.77;;;;;;;;;;5561244;25;20500;-59
2024/04/25 10:26:53;;;;;;;3.03;2.38;;;;;;;;;;5561471;25;20013;-58
2024/04/25 10:29:29;;;;;;;3.05;1.70;;;;;;;;;;5559103;25;20008;-58
2024/04/25 10:31:55;;;;;;;5.70;2.30;;;;;;;;;;5561653;25;19993;-58
2024/04/25 10:34:21;;;;;;;4.93;2.13;;;;;;;;;;5560604;25;19993;-58
2024/04/25 10:36:47;;;;;;;4.93;3.05;;;;;;;;;;5546372;25;20130;-58
2024/04/25 10:39:17;;;;;;;5.20;3.30;;;;;;;;;;5554314;25;20001;-57
2024/04/25 10:41:43;;;;;;;7.05;3.30;;;;;;;;;;5561092;25;20000;-57
2024/04/25 10:44:10;;;;;;;3.80;2.42;;;;;;;;;;5554856;25;20033;-57
2024/04/25 10:46:36;;;;;;;4.35;2.22;;;;;;;;;;5561279;25;20389;-58
2024/04/25 10:49:04;;;;;;;5.90;2.97;;;;;;;;;;5561110;25;20013;-58
2024/04/25 10:51:30;;;;;;;3.67;2.40;;;;;;;;;;5559282;25;20421;-58
2024/04/25 10:53:56;;;;;;;2.53;1.50;;;;;;;;;;5560556;25;20040;-58
2024/04/25 10:56:22;;;;;;;3.53;2.40;;;;;;;;;;5560825;25;20204;-58
2024/04/25 10:58:50;;;;;;;3.58;2.38;;;;;;;;;;5560843;25;20553;-58
2024/04/25 11:01:26;;;;;;;4.93;2.22;;;;;;;;;;5560779;25;19992;-57
2024/04/25 11:03:55;;;;;;;3.08;2.10;;;;;;;;;;5560383;25;20000;-59
2024/04/25 11:06:21;;;;;;;2.53;1.80;;;;;;;;;;5542981;25;20004;-58
2024/04/25 11:08:47;;;;;;;3.03;1.88;;;;;;;;;;5535491;25;20405;-55
2024/04/25 11:11:14;;;;;;;3.58;2.60;;;;;;;;;;5560776;25;20016;-55
2024/04/25 11:13:40;;;;;;;3.75;1.90;;;;;;;;;;5542245;25;19993;-55
2024/04/25 11:16:06;;;;;;;2.35;1.80;;;;;;;;;;5560949;25;20417;-56
2024/04/25 11:18:33;;;;;;;2.33;1.80;;;;;;;;;;5535501;25;19993;-55
2024/04/25 11:21:01;;;;;;;2.58;1.88;;;;;;;;;;5536279;25;19997;-55
2024/04/25 11:23:27;;;;;;;3.22;1.88;;;;;;;;;;5559583;25;20001;-55
2024/04/25 11:25:53;;;;;;;2.92;1.90;;;;;;;;;;5560896;25;20091;-55
2024/04/25 11:28:19;;;;;;;2.85;2.00;;;;;;;;;;5560461;25;20540;-56
2024/04/25 11:30:45;;;;;;;3.47;2.08;;;;;;;;;;5560407;25;20008;-56
2024/04/25 11:33:11;;;;;;;3.22;2.10;;;;;;;;;;5553778;25;20038;-56
2024/04/25 11:35:37;;;;;;;2.17;1.48;;;;;;;;;;5558651;25;20038;-57
2024/04/25 11:38:03;;;;;;;2.42;1.48;;;;;;;;;;5535415;25;19993;-56
2024/04/25 11:40:35;;;;;;;2.70;1.60;;;;;;;;;;5560098;25;20000;-57
2024/04/25 11:43:01;;;;;;;2.17;1.33;;;;;;;;;;5554732;25;20000;-56
2024/04/25 11:45:28;;;;;;;1.40;1.10;;;;;;;;;;5552466;25;20025;-56
2024/04/25 11:47:54;;;;;;;1.75;1.20;;;;;;;;;;5560281;25;20076;-56
2024/04/25 11:50:20;;;;;;;1.80;1.20;;;;;;;;;;5559654;25;19993;-57
2024/04/25 11:52:46;;;;;;;1.98;1.40;;;;;;;;;;5557896;25;20011;-55
2024/04/25 11:55:12;;;;;;;1.30;0.90;;;;;;;;;;5549143;25;20004;-56
2024/04/25 11:57:38;;;;;;;2.22;1.33;;;;;;;;;;5559819;25;19992;-56
2024/04/25 12:00:04;;;;;;;1.33;0.90;;;;;;;;;;5557378;25;20005;-56
2024/04/25 12:02:33;;;;;;;2.42;1.10;;;;;;;;;;5561327;25;19996;-55
2024/04/25 12:04:59;;;;;;;1.55;1.20;;;;;;;;;;5563284;25;20696;-57
2024/04/25 12:07:25;;;;;;;1.30;0.68;;;;;;;;;;5545190;25;20033;-56
2024/04/25 12:09:51;;;;;;;2.92;1.00;;;;;;;;;;5553756;25;20003;-61
2024/04/25 12:12:17;;;;;;;1.58;0.80;;;;;;;;;;5557786;25;20417;-61
2024/04/25 12:14:43;;;;;;;2.63;0.90;;;;;;;;;;5563451;25;20434;-61
2024/04/25 12:17:09;;;;;;;1.73;1.05;;;;;;;;;;5563592;25;20040;-62
2024/04/25 12:19:35;;;;;;;1.45;0.90;;;;;;;;;;5557365;25;20358;-58
2024/04/25 12:22:01;;;;;;;2.10;1.10;;;;;;;;;;5561725;25;20034;-60
2024/04/25 12:24:27;;;;;;;1.23;1.00;;;;;;;;;;5562690;25;20339;-58
2024/04/25 12:26:53;;;;;;;1.23;0.80;;;;;;;;;;5552985;25;20001;-58
2024/04/25 12:29:19;;;;;;;1.65;1.05;;;;;;;;;;5560865;25;20352;-58
2024/04/25 12:31:46;;;;;;;1.50;0.90;;;;;;;;;;5561621;25;20004;-58
2024/04/25 12:34:12;;;;;;;1.80;0.93;;;;;;;;;;5562015;25;19996;-58
2024/04/25 12:36:38;;;;;;;1.17;0.90;;;;;;;;;;5560746;25;20401;-59
2024/04/25 12:39:06;;;;;;;1.25;1.00;;;;;;;;;;5562614;25;20021;-58
2024/04/25 12:41:32;;;;;;;1.33;1.02;;;;;;;;;;5563421;25;20000;-59
2024/04/25 12:43:58;;;;;;;3.38;1.23;;;;;;;;;;5557173;25;20001;-58
2024/04/25 12:46:24;;;;;;;1.50;1.10;;;;;;;;;;5563260;25;20008;-58
2024/04/25 12:48:50;;;;;;;1.92;1.50;;;;;;;;;;5548905;25;19994;-59
2024/04/25 12:51:16;;;;;;;3.55;1.77;;;;;;;;;;5563017;25;20004;-58
2024/04/25 12:53:42;;;;;;;1.40;1.20;;;;;;;;;;5554961;25;20000;-58
2024/04/25 12:56:08;;;;;;;1.55;0.90;;;;;;;;;;5560754;25;20001;-57
2024/04/25 12:58:36;;;;;;;2.55;0.60;;;;;;;;;;5559870;25;20005;-58
2024/04/25 13:01:02;;;;;;;0.63;0.50;;;;;;;;;;5542071;25;20012;-58
2024/04/25 13:03:28;;;;;;;1.60;0.60;;;;;;;;;;5561943;25;20011;-57
2024/04/25 13:05:54;;;;;;;0.82;0.57;;;;;;;;;;5562807;25;20515;-57
2024/04/25 13:08:20;;;;;;;0.73;0.60;;;;;;;;;;5551361;25;20000;-57
2024/04/25 13:10:46;;;;;;;1.30;0.80;;;;;;;;;;5561517;25;20008;-57
2024/04/25 13:13:16;;;;;;;0.77;0.60;;;;;;;;;;5544607;25;19998;-58
2024/04/25 13:15:42;;;;;;;0.90;0.50;;;;;;;;;;5562518;25;20012;-58
2024/04/25 13:18:08;;;;;;;0.70;0.50;;;;;;;;;;5551528;25;20049;-58
2024/04/25 13:20:34;;;;;;;0.73;0.40;;;;;;;;;;5549143;25;20452;-58
2024/04/25 13:23:00;;;;;;;0.40;0.40;;;;;;;;;;5555251;25;19992;-59
2024/04/25 13:25:26;;;;;;;0.35;0.30;;;;;;;;;;5558919;25;20007;-59
2024/04/25 13:27:52;;;;;;;0.38;0.30;;;;;;;;;;5547062;25;20008;-59
2024/04/25 13:30:18;;;;;;;0.30;0.30;;;;;;;;;;5560155;25;20024;-63
2024/04/25 13:32:44;;;;;;;0.65;0.43;;;;;;;;;;5549116;25;20068;-63
2024/04/25 13:35:10;;;;;;;1.02;0.43;;;;;;;;;;5553502;25;20416;-63
2024/04/25 13:37:35;;;;;;;0.57;0.40;;;;;;;;;;5549149;25;20001;-63
2024/04/25 13:40:01;;;;;;;0.65;0.55;;;;;;;;;;5568981;25;20025;-62
2024/04/25 13:42:27;;;;;;;1.00;0.70;;;;;;;;;;5558467;25;20028;-63
2024/04/25 13:44:53;;;;;;;1.13;0.70;;;;;;;;;;5553530;25;20048;-61
2024/04/25 13:47:19;;;;;;;1.00;0.73;;;;;;;;;;5557742;25;20032;-62
2024/04/25 13:49:45;;;;;;;1.23;0.90;;;;;;;;;;5559283;25;20000;-62
2024/04/25 13:52:11;;;;;;;1.20;0.85;;;;;;;;;;5546902;25;20418;-61
2024/04/25 13:54:37;;;;;;;1.65;0.98;;;;;;;;;;5552757;25;20021;-61
2024/04/25 13:57:04;;;;;;;1.88;1.27;;;;;;;;;;5544659;25;20062;-62
2024/04/25 13:59:30;;;;;;;1.80;1.02;;;;;;;;;;5558089;25;20015;-61
2024/04/25 14:01:56;;;;;;;3.35;1.48;;;;;;;;;;5556887;25;20036;-60
2024/04/25 14:04:22;;;;;;;1.67;1.00;;;;;;;;;;5543069;25;20005;-60
2024/04/25 14:06:48;;;;;;;1.33;0.93;;;;;;;;;;5531586;25;20005;-60
2024/04/25 14:09:14;;;;;;;2.05;1.10;;;;;;;;;;5531479;25;20482;-62
2024/04/25 14:11:40;;;;;;;1.60;1.00;;;;;;;;;;5550418;25;20437;-60
2024/04/25 14:14:08;;;;;;;0.88;0.73;;;;;;;;;;5531746;25;20008;-62
2024/04/25 14:16:34;;;;;;;1.67;1.10;;;;;;;;;;5530294;25;20072;-61
2024/04/25 14:19:00;;;;;;;1.92;1.05;;;;;;;;;;5543791;25;20064;-62
2024/04/25 14:21:26;;;;;;;1.63;0.98;;;;;;;;;;5544091;25;20381;-62
2024/04/25 14:23:52;;;;;;;2.30;1.40;;;;;;;;;;5562230;25;20165;-61
2024/04/25 14:29:04;;;;;;;1.10;0.95;;;;;;;;;;5548667;25;20015;-59
2024/04/25 14:31:30;;;;;;;1.20;0.88;;;;;;;;;;5553285;25;20016;-58
2024/04/25 14:33:56;;;;;;;1.60;1.17;;;;;;;;;;5548005;25;20000;-58
2024/04/25 14:36:22;;;;;;;1.30;1.00;;;;;;;;;;5549177;25;20016;-59